CL77 weather

Bonny Doon Village Airport
Santa Cruz, California, United States

Public forecast

Using degrees Fahrenheit for public forecast. Weather courtesy of forecast.io.

Closest aviation weather report (METAR) to Bonny Doon Village Airport

Closest report is Watsonville Municipal Airport, 18.1 nm (33.5 km) ESE. Retrieved 2019/10/16 04:53 UTC (44 minutes ago):

KWVI 160453Z AUTO 00000KT 10SM BKN005 12/11 A3005 RMK AO2 SLP174 T01220106

Closest aviation forecast (TAF) to Bonny Doon Village Airport

Closest forecast is Norman Y. Mineta San Jose International Airport, 19.9 nm (36.9 km) NNE. Retrieved 2019-10-16 00:27 UTC (5 hours ago):

TAF KSJC 152325Z 1600/1624 32009KT P6SM SKC FM160400 VRB03KT P6SM SKC FM160900 VRB03KT P6SM FEW010 FEW200 FM161200 VRB03KT P6SM BKN010 FM161700 VRB03KT P6SM SCT010 BKN200 FM161900 29008KT P6SM BKN200